createdAt,value
2018-03-15T00:01:33.380Z,82.60
2018-03-15T00:04:00.905Z,82.60
2018-03-15T00:06:28.408Z,82.70
2018-03-15T00:08:55.928Z,82.70
2018-03-15T00:11:23.440Z,82.70
2018-03-15T00:13:50.969Z,82.60
2018-03-15T00:16:18.505Z,82.60
2018-03-15T00:18:46.329Z,82.70
2018-03-15T00:21:14.601Z,82.70
2018-03-15T00:23:42.897Z,82.70
2018-03-15T00:26:10.401Z,82.60
2018-03-15T00:28:37.941Z,82.70
2018-03-15T00:31:05.460Z,82.70
2018-03-15T00:33:33.757Z,82.70
2018-03-15T00:36:01.265Z,82.70
2018-03-15T00:38:28.793Z,82.70
2018-03-15T00:40:56.301Z,82.60
2018-03-15T00:43:24.602Z,82.70
2018-03-15T00:45:52.109Z,82.60
2018-03-15T00:48:19.638Z,82.70
2018-03-15T00:50:47.150Z,82.70
2018-03-15T00:53:15.436Z,82.70
2018-03-15T00:55:43.726Z,82.70
2018-03-15T00:58:11.244Z,82.80
2018-03-15T01:00:38.764Z,82.70
2018-03-15T01:03:07.056Z,82.70
2018-03-15T01:05:34.552Z,82.70
2018-03-15T01:08:02.851Z,82.80
2018-03-15T01:10:30.364Z,82.70
2018-03-15T01:12:57.896Z,82.70
2018-03-15T01:15:25.401Z,82.80
2018-03-15T01:17:53.697Z,82.80
2018-03-15T01:20:21.212Z,82.60
2018-03-15T01:22:48.745Z,82.90
2018-03-15T01:25:16.269Z,82.70
2018-03-15T01:27:44.576Z,82.80
2018-03-15T01:30:12.092Z,82.80
2018-03-15T01:32:40.385Z,82.90
2018-03-15T01:35:07.921Z,82.80
2018-03-15T01:37:35.465Z,82.80
2018-03-15T01:40:02.975Z,82.80
2018-03-15T01:42:30.500Z,82.80
2018-03-15T01:44:58.777Z,82.80
2018-03-15T01:47:27.084Z,82.80
2018-03-15T01:49:54.592Z,82.80
2018-03-15T01:52:22.144Z,82.80
2018-03-15T01:54:49.653Z,82.90
2018-03-15T01:57:17.189Z,82.80
2018-03-15T01:59:45.455Z,82.90
2018-03-15T02:02:13.001Z,82.70
2018-03-15T02:04:40.514Z,82.90
2018-03-15T02:07:08.800Z,82.80
2018-03-15T02:09:36.321Z,82.80
2018-03-15T02:12:03.852Z,82.90
2018-03-15T02:14:31.376Z,82.90
2018-03-15T02:16:58.885Z,82.80
2018-03-15T02:19:27.192Z,82.80
2018-03-15T02:21:55.464Z,82.80
2018-03-15T02:24:23.001Z,82.80
2018-03-15T02:26:50.516Z,82.90
2018-03-15T02:29:18.046Z,82.80
2018-03-15T02:31:51.414Z,82.80
2018-03-15T02:34:18.964Z,82.80
2018-03-15T02:36:47.241Z,82.80
2018-03-15T02:39:14.783Z,82.80
2018-03-15T02:41:43.062Z,82.90
2018-03-15T02:44:11.371Z,82.90
2018-03-15T02:46:38.897Z,82.90
2018-03-15T02:49:07.204Z,83.00
2018-03-15T02:51:34.715Z,82.90
2018-03-15T02:54:02.259Z,82.90
2018-03-15T02:56:29.768Z,82.90
2018-03-15T02:58:57.307Z,82.90
2018-03-15T03:01:25.580Z,83.00
2018-03-15T03:03:53.889Z,83.00
2018-03-15T03:06:21.403Z,82.80
2018-03-15T03:08:49.703Z,83.00
2018-03-15T03:11:17.999Z,83.00
2018-03-15T03:13:45.528Z,82.90
2018-03-15T03:16:13.805Z,82.90
2018-03-15T03:18:42.092Z,83.00
2018-03-15T03:21:09.597Z,82.90
2018-03-15T03:23:37.136Z,83.00
2018-03-15T03:26:04.649Z,83.00
2018-03-15T03:28:32.954Z,83.60
2018-03-15T03:31:00.464Z,82.90
2018-03-15T03:33:28.005Z,83.00
2018-03-15T03:35:55.513Z,83.10
2018-03-15T03:38:23.040Z,83.00
2018-03-15T03:40:50.544Z,83.00
2018-03-15T03:43:18.073Z,83.00
2018-03-15T03:45:45.589Z,82.90
2018-03-15T03:48:13.129Z,83.00
2018-03-15T03:50:40.650Z,83.00
2018-03-15T03:53:08.950Z,83.00
2018-03-15T03:55:36.467Z,83.00
2018-03-15T03:58:03.998Z,82.90
2018-03-15T04:00:31.508Z,83.70
2018-03-15T04:02:59.049Z,82.90
2018-03-15T04:05:26.567Z,83.00
2018-03-15T04:07:54.110Z,82.90
2018-03-15T04:10:21.621Z,83.00
2018-03-15T04:12:49.153Z,83.10
2018-03-15T04:15:16.673Z,83.10
2018-03-15T04:17:44.197Z,83.20
2018-03-15T04:20:11.721Z,83.90
2018-03-15T04:22:39.236Z,83.10
2018-03-15T04:25:06.767Z,83.20
2018-03-15T04:27:35.045Z,83.50
2018-03-15T04:30:03.357Z,83.40
2018-03-15T04:32:30.865Z,83.20
2018-03-15T04:34:58.396Z,83.50
2018-03-15T04:37:25.906Z,83.40
2018-03-15T04:39:53.456Z,83.50
2018-03-15T04:42:21.737Z,83.50
2018-03-15T04:44:49.271Z,83.40
2018-03-15T04:47:16.775Z,83.30
2018-03-15T04:49:44.311Z,83.50
2018-03-15T04:52:11.825Z,83.60
2018-03-15T04:54:39.356Z,83.60
2018-03-15T04:57:06.860Z,83.70
2018-03-15T04:59:34.385Z,83.70
2018-03-15T05:02:01.937Z,83.70
2018-03-15T05:04:29.473Z,83.80
2018-03-15T05:06:56.980Z,83.80
2018-03-15T05:09:24.506Z,83.90
2018-03-15T05:11:52.022Z,83.90
2018-03-15T05:14:20.315Z,83.90
2018-03-15T05:16:47.832Z,83.90
2018-03-15T05:19:15.364Z,83.90
2018-03-15T05:21:42.872Z,83.80
2018-03-15T05:24:11.167Z,83.80
2018-03-15T05:26:38.677Z,83.80
2018-03-15T05:29:06.210Z,84.00
2018-03-15T05:31:33.749Z,84.30
2018-03-15T05:34:01.294Z,84.30
2018-03-15T05:36:28.811Z,83.90
2018-03-15T05:38:56.354Z,83.90
2018-03-15T05:41:23.865Z,84.00
2018-03-15T05:43:51.446Z,84.10
2018-03-15T05:46:18.986Z,84.30
2018-03-15T05:48:46.521Z,84.20
2018-03-15T05:51:14.024Z,84.40
2018-03-15T05:53:42.325Z,84.40
2018-03-15T05:56:09.955Z,84.40
2018-03-15T05:58:37.485Z,84.30
2018-03-15T06:01:05.760Z,84.50
2018-03-15T06:03:34.061Z,84.60
2018-03-15T06:06:01.577Z,84.50
2018-03-15T06:08:29.107Z,84.60
2018-03-15T06:10:56.612Z,84.70
2018-03-15T06:13:24.912Z,84.60
2018-03-15T06:15:52.427Z,84.50
2018-03-15T06:18:20.709Z,84.40
2018-03-15T06:20:49.009Z,84.60
2018-03-15T06:23:16.527Z,84.60
2018-03-15T06:25:44.057Z,84.70
2018-03-15T06:28:11.583Z,84.50
2018-03-15T06:30:39.117Z,84.70
2018-03-15T06:33:07.393Z,84.70
2018-03-15T06:35:35.683Z,84.50
2018-03-15T06:38:03.200Z,84.60
2018-03-15T06:40:30.720Z,84.60
2018-03-15T06:42:58.249Z,84.70
2018-03-15T06:45:26.553Z,84.70
2018-03-15T06:47:54.073Z,84.80
2018-03-15T06:50:22.370Z,84.40
2018-03-15T06:52:49.897Z,84.40
2018-03-15T06:55:17.427Z,84.40
2018-03-15T06:57:44.956Z,84.40
2018-03-15T07:00:12.496Z,84.50
2018-03-15T07:02:40.765Z,84.50
2018-03-15T07:05:09.085Z,84.50
2018-03-15T07:07:36.601Z,84.50
2018-03-15T07:10:04.913Z,84.60
2018-03-15T07:12:32.425Z,84.60
2018-03-15T07:15:00.716Z,84.50
2018-03-15T07:17:28.233Z,84.40
2018-03-15T07:19:55.761Z,84.60
2018-03-15T07:22:23.300Z,84.70
2018-03-15T07:24:50.824Z,84.80
2018-03-15T07:27:18.332Z,84.90
2018-03-15T07:29:45.862Z,85.10
2018-03-15T07:32:14.141Z,85.60
2018-03-15T07:34:41.674Z,85.60
2018-03-15T07:37:09.967Z,85.70
2018-03-15T07:39:38.271Z,86.20
2018-03-15T07:42:05.776Z,86.20
2018-03-15T07:44:33.304Z,86.20
2018-03-15T07:47:00.813Z,86.70
2018-03-15T07:49:29.114Z,86.90
2018-03-15T07:51:56.630Z,86.00
2018-03-15T07:54:24.152Z,86.50
2018-03-15T07:56:51.675Z,86.40
2018-03-15T07:59:19.200Z,86.80
2018-03-15T08:01:46.711Z,86.60
2018-03-15T08:04:14.241Z,86.30
2018-03-15T08:06:42.522Z,86.70
2018-03-15T08:09:10.053Z,86.60
2018-03-15T08:11:37.585Z,87.20
2018-03-15T08:14:05.113Z,87.20
2018-03-15T08:16:32.653Z,87.60
2018-03-15T08:19:00.197Z,86.70
2018-03-15T08:21:28.482Z,86.70
2018-03-15T08:23:56.765Z,87.00
2018-03-15T08:26:24.297Z,87.00
2018-03-15T08:28:52.583Z,86.30
2018-03-15T08:31:20.883Z,86.30
2018-03-15T08:33:48.401Z,86.30
2018-03-15T08:36:15.937Z,86.50
2018-03-15T08:38:43.447Z,86.50
2018-03-15T08:41:10.972Z,86.00
2018-03-15T08:43:42.627Z,86.80
2018-03-15T08:46:10.157Z,86.20
2018-03-15T08:48:37.678Z,86.70
2018-03-15T08:51:05.217Z,86.70
2018-03-15T08:53:32.748Z,86.00
2018-03-15T08:56:00.282Z,85.70
2018-03-15T08:58:27.793Z,85.70
2018-03-15T09:00:56.080Z,86.70
2018-03-15T09:03:23.592Z,86.60
2018-03-15T09:05:51.164Z,85.20
2018-03-15T09:08:18.666Z,86.40
2018-03-15T09:10:46.194Z,84.60
2018-03-15T09:13:14.470Z,85.00
2018-03-15T09:15:42.764Z,85.70
2018-03-15T09:18:10.282Z,85.70
2018-03-15T09:20:37.814Z,85.80
2018-03-15T09:23:05.332Z,84.60
2018-03-15T09:25:32.866Z,86.00
2018-03-15T09:28:00.383Z,84.80
2018-03-15T09:30:27.908Z,85.10
2018-03-15T09:32:55.429Z,84.30
2018-03-15T09:35:23.741Z,85.00
2018-03-15T09:37:51.289Z,84.90
2018-03-15T09:40:18.833Z,84.40
2018-03-15T09:42:46.377Z,83.90
2018-03-15T09:45:14.698Z,84.80
2018-03-15T09:47:42.996Z,84.90
2018-03-15T09:50:10.551Z,84.90
2018-03-15T09:52:38.081Z,84.00
2018-03-15T09:55:05.633Z,84.50
2018-03-15T09:57:33.164Z,83.50
2018-03-15T10:00:00.709Z,84.30
2018-03-15T10:02:28.249Z,83.00
2018-03-15T10:04:55.793Z,82.20
2018-03-15T10:07:23.332Z,83.40
2018-03-15T10:09:50.891Z,82.60
2018-03-15T10:12:18.433Z,84.60
2018-03-15T10:14:46.762Z,83.80
2018-03-15T10:17:14.294Z,83.80
2018-03-15T10:19:41.837Z,83.50
2018-03-15T10:22:09.363Z,83.20
2018-03-15T10:24:36.884Z,82.70
2018-03-15T10:27:04.438Z,84.50
2018-03-15T10:29:31.973Z,84.40
2018-03-15T10:31:59.534Z,84.60
2018-03-15T10:34:27.083Z,83.70
2018-03-15T10:36:54.638Z,84.20
2018-03-15T10:39:24.101Z,83.60
2018-03-15T10:41:51.658Z,83.80
2018-03-15T10:44:19.212Z,83.10
2018-03-15T10:46:46.754Z,82.60
2018-03-15T10:49:14.285Z,83.00
2018-03-15T10:51:41.841Z,83.80
2018-03-15T10:54:09.380Z,82.80
2018-03-15T10:56:37.701Z,83.70
2018-03-15T10:59:05.266Z,83.70
2018-03-15T11:01:38.449Z,82.90
2018-03-15T11:04:10.761Z,84.20
2018-03-15T11:06:52.816Z,83.00
2018-03-15T11:09:23.198Z,83.90
2018-03-15T11:11:51.152Z,81.90
2018-03-15T11:14:19.463Z,82.90
2018-03-15T11:16:47.001Z,83.00
2018-03-15T11:19:14.528Z,82.90
2018-03-15T12:58:40.293Z,76.20
2018-03-15T13:01:08.624Z,78.30
2018-03-15T13:03:36.236Z,78.30
2018-03-15T13:06:03.710Z,78.20
2018-03-15T13:08:31.244Z,78.40
2018-03-15T13:10:59.525Z,76.90
2018-03-15T13:13:27.821Z,77.50
2018-03-15T13:15:55.334Z,77.40
2018-03-15T13:18:22.913Z,77.10
2018-03-15T13:20:51.385Z,77.10
2018-03-15T13:23:18.905Z,77.00
2018-03-15T13:25:46.430Z,78.00
2018-03-15T13:28:13.958Z,77.20
2018-03-15T13:30:41.479Z,77.40
2018-03-15T13:33:09.018Z,77.30
2018-03-15T13:35:36.561Z,77.80
2018-03-15T13:38:04.098Z,78.00
2018-03-15T13:40:32.385Z,77.80
2018-03-15T13:43:00.704Z,77.60
2018-03-15T13:45:28.229Z,77.50
2018-03-15T13:47:55.765Z,77.60
2018-03-15T13:50:24.053Z,76.50
2018-03-15T13:52:52.355Z,77.30
2018-03-15T13:55:19.874Z,77.20
2018-03-15T13:57:48.187Z,77.10
2018-03-15T14:00:15.700Z,77.00
2018-03-15T14:02:43.233Z,77.00
2018-03-15T14:05:10.762Z,77.90
2018-03-15T14:07:38.318Z,77.90
2018-03-15T14:10:05.828Z,76.90
2018-03-15T14:12:33.345Z,77.20
2018-03-15T14:15:00.878Z,78.00
2018-03-15T14:17:28.407Z,77.70
2018-03-15T14:19:56.713Z,77.60
2018-03-15T14:22:24.262Z,77.30
2018-03-15T14:27:26.522Z,78.20
2018-03-15T14:29:54.070Z,77.30
2018-03-15T14:32:21.589Z,77.30
2018-03-15T14:34:49.125Z,77.60
2018-03-15T14:37:16.707Z,77.00
2018-03-15T14:39:44.248Z,77.00
2018-03-15T14:42:11.778Z,76.50
2018-03-15T14:44:40.105Z,76.90
2018-03-15T14:47:07.632Z,76.90
2018-03-15T14:49:35.938Z,77.00
2018-03-15T14:52:03.452Z,76.90
2018-03-15T14:54:31.758Z,78.20
2018-03-15T14:56:59.274Z,78.90
2018-03-15T14:59:26.812Z,77.80
2018-03-15T15:01:54.330Z,77.60
2018-03-15T15:04:21.877Z,77.70
2018-03-15T15:06:49.405Z,77.40
2018-03-15T15:09:16.967Z,77.40
2018-03-15T15:11:44.477Z,77.70
2018-03-15T15:14:12.895Z,78.80
2018-03-15T15:16:40.427Z,77.80
2018-03-15T15:19:07.964Z,78.30
2018-03-15T15:21:35.526Z,77.10
2018-03-15T15:24:03.061Z,77.10
2018-03-15T15:26:30.595Z,76.80
2018-03-15T15:28:58.152Z,77.70
2018-03-15T15:31:25.689Z,78.50
2018-03-15T15:33:53.842Z,78.30
2018-03-15T15:36:21.372Z,77.60
2018-03-15T15:38:48.885Z,77.50
2018-03-15T15:41:16.425Z,76.70
2018-03-15T15:43:43.948Z,77.50
2018-03-15T15:46:11.485Z,77.30
2018-03-15T15:48:39.775Z,78.10
2018-03-15T15:51:08.075Z,77.60
2018-03-15T15:53:35.607Z,77.60
2018-03-15T15:56:03.159Z,77.90
2018-03-15T15:58:31.446Z,77.50
2018-03-15T16:00:58.980Z,77.50
2018-03-15T16:03:26.508Z,77.50
2018-03-15T16:05:54.041Z,77.20
2018-03-15T16:08:21.582Z,77.50
2018-03-15T16:10:49.116Z,77.20
2018-03-15T16:13:17.417Z,77.90
2018-03-15T16:15:45.004Z,77.80
2018-03-15T16:18:13.259Z,77.70
2018-03-15T16:20:40.774Z,77.60
2018-03-15T16:23:08.306Z,77.90
2018-03-15T16:25:35.827Z,77.60
2018-03-15T16:28:03.411Z,78.10
2018-03-15T16:30:30.925Z,77.60
2018-03-15T16:32:59.230Z,78.50
2018-03-15T16:35:26.745Z,78.50
2018-03-15T16:37:55.052Z,78.00
2018-03-15T16:40:22.561Z,77.60
2018-03-15T16:42:50.099Z,78.10
2018-03-15T16:45:17.626Z,77.80
2018-03-15T16:47:45.170Z,78.00
2018-03-15T16:50:13.457Z,77.70
2018-03-15T16:52:41.074Z,77.70
2018-03-15T16:55:08.586Z,77.20
2018-03-15T16:57:36.122Z,78.10
2018-03-15T17:00:03.667Z,78.20
2018-03-15T17:02:31.225Z,78.00
2018-03-15T17:04:59.509Z,78.40
2018-03-15T17:07:27.810Z,78.30
2018-03-15T17:09:55.326Z,78.20
2018-03-15T17:12:22.873Z,78.20
2018-03-15T17:14:50.386Z,78.50
2018-03-15T17:17:17.892Z,77.90
2018-03-15T17:19:45.448Z,78.40
2018-03-15T17:22:12.965Z,78.00
2018-03-15T17:24:40.497Z,78.50
2018-03-15T17:27:08.774Z,78.40
2018-03-15T17:29:36.305Z,78.30
2018-03-15T17:32:03.821Z,78.00
2018-03-15T17:34:31.364Z,78.20
2018-03-15T17:36:58.884Z,78.30
2018-03-15T17:39:27.295Z,78.60
2018-03-15T17:41:54.825Z,78.40
2018-03-15T17:44:23.127Z,78.30
2018-03-15T17:46:50.654Z,78.20
2018-03-15T17:49:18.191Z,78.60
2018-03-15T17:51:45.704Z,78.60
2018-03-15T17:54:13.234Z,78.80
2018-03-15T17:56:40.749Z,79.90
2018-03-15T17:59:08.281Z,78.70
2018-03-15T18:01:35.818Z,79.00
2018-03-15T18:04:04.114Z,78.90
2018-03-15T18:06:31.624Z,78.80
2018-03-15T18:08:59.176Z,78.90
2018-03-15T18:11:26.687Z,78.70
2018-03-15T18:13:54.233Z,78.90
2018-03-15T18:16:21.765Z,78.80
2018-03-15T18:18:49.280Z,78.90
2018-03-15T18:21:16.824Z,78.80
2018-03-15T18:23:44.340Z,78.90
2018-03-15T18:26:11.882Z,78.70
2018-03-15T18:28:39.394Z,79.70
2018-03-15T18:31:06.920Z,79.10
2018-03-15T18:33:35.200Z,78.90
2018-03-15T18:36:03.525Z,79.90
2018-03-15T18:38:31.045Z,79.00
2018-03-15T18:40:58.569Z,78.90
2018-03-15T18:43:26.074Z,79.10
2018-03-15T18:45:53.630Z,79.00
2018-03-15T18:48:21.167Z,79.10
2018-03-15T18:50:49.436Z,79.20
2018-03-15T18:53:17.748Z,79.30
2018-03-15T18:55:45.262Z,79.20
2018-03-15T18:58:12.796Z,79.30
2018-03-15T19:00:41.436Z,79.40
2018-03-15T19:03:09.682Z,79.20
2018-03-15T19:05:37.667Z,79.20
2018-03-15T19:08:05.276Z,79.10
2018-03-15T19:10:32.790Z,79.10
2018-03-15T19:13:00.330Z,79.30
2018-03-15T19:15:28.633Z,79.30
2018-03-15T19:17:56.167Z,80.00
2018-03-15T19:20:23.697Z,79.10
2018-03-15T19:22:51.226Z,79.00
2018-03-15T19:25:18.732Z,79.10
2018-03-15T19:27:47.033Z,79.50
2018-03-15T19:30:15.397Z,79.00
2018-03-15T19:32:42.973Z,79.00
2018-03-15T19:35:10.486Z,79.10
2018-03-15T19:37:38.017Z,79.10
2018-03-15T19:40:05.590Z,79.30
2018-03-15T19:42:33.129Z,79.40
2018-03-15T19:45:00.670Z,79.30
2018-03-15T19:47:28.194Z,80.20
2018-03-15T19:49:56.509Z,79.50
2018-03-15T19:52:24.022Z,79.40
2018-03-15T19:54:51.554Z,79.50
2018-03-15T19:57:19.072Z,79.40
2018-03-15T19:59:46.598Z,79.30
2018-03-15T20:02:14.123Z,79.40
2018-03-15T20:04:41.666Z,79.40
2018-03-15T20:07:09.197Z,79.50
2018-03-15T20:09:36.728Z,79.50
2018-03-15T20:12:04.370Z,79.40
2018-03-15T20:14:31.896Z,79.60
2018-03-15T20:16:59.433Z,79.70
2018-03-15T20:19:27.009Z,79.70
2018-03-15T20:21:55.070Z,79.70
2018-03-15T20:24:28.303Z,79.70
2018-03-15T20:26:56.077Z,79.60
2018-03-15T20:29:23.610Z,79.60
2018-03-15T20:31:51.134Z,79.70
2018-03-15T20:34:18.669Z,79.70
2018-03-15T20:36:46.942Z,79.90
2018-03-15T20:39:20.187Z,79.80
2018-03-15T20:41:47.706Z,79.80
2018-03-15T20:44:15.259Z,79.70
2018-03-15T20:46:49.227Z,79.70
2018-03-15T20:49:16.760Z,79.70
2018-03-15T20:51:44.273Z,79.80
2018-03-15T20:54:11.806Z,79.90
2018-03-15T20:56:39.321Z,79.90
2018-03-15T20:59:06.876Z,79.80
2018-03-15T21:01:34.392Z,79.80
2018-03-15T21:04:01.933Z,79.90
2018-03-15T21:06:29.464Z,79.80
2018-03-15T21:08:57.526Z,79.90
2018-03-15T21:11:25.599Z,79.80
2018-03-15T21:13:53.142Z,79.90
2018-03-15T21:16:20.921Z,80.00
2018-03-15T21:18:48.466Z,80.00
2018-03-15T21:21:16.002Z,80.00
2018-03-15T21:23:44.280Z,80.90
2018-03-15T21:26:12.577Z,80.20
2018-03-15T21:28:40.682Z,80.00
2018-03-15T21:31:08.328Z,80.00
2018-03-15T21:33:35.869Z,80.10
2018-03-15T21:38:35.154Z,80.00
2018-03-15T21:41:02.707Z,80.10
2018-03-15T21:43:30.244Z,80.20
2018-03-15T21:45:57.808Z,80.30
2018-03-15T21:48:25.340Z,80.30
2018-03-15T21:50:54.056Z,80.20
2018-03-15T21:53:21.598Z,80.20
2018-03-15T21:55:49.140Z,80.30
2018-03-15T21:58:16.677Z,80.30
2018-03-15T22:00:44.353Z,80.40
2018-03-15T22:03:11.871Z,80.40
2018-03-15T22:05:39.443Z,80.40
2018-03-15T22:08:07.752Z,80.50
2018-03-15T22:10:35.294Z,80.40
2018-03-15T22:13:02.970Z,80.40
2018-03-15T22:15:30.542Z,80.40
2018-03-15T22:17:58.078Z,80.50
2018-03-15T22:20:25.634Z,80.50
2018-03-15T22:22:53.204Z,80.50
2018-03-15T22:25:20.748Z,80.60
2018-03-15T22:27:48.254Z,80.60
2018-03-15T22:30:15.899Z,80.60
2018-03-15T22:32:43.445Z,80.60
2018-03-15T22:35:10.977Z,80.60
2018-03-15T22:37:38.575Z,80.60
2018-03-15T22:40:06.077Z,80.60
2018-03-15T22:42:33.594Z,80.60
2018-03-15T22:45:01.193Z,80.60
2018-03-15T22:47:29.473Z,80.70
2018-03-15T22:49:57.104Z,80.60
2018-03-15T22:52:24.613Z,80.80
2018-03-15T22:54:52.145Z,80.70
2018-03-15T22:57:19.662Z,80.80
2018-03-15T22:59:47.195Z,80.90
2018-03-15T23:02:14.705Z,80.80
2018-03-15T23:04:43.038Z,81.00
2018-03-15T23:07:10.561Z,81.00
2018-03-15T23:09:38.921Z,81.00
2018-03-15T23:12:06.453Z,81.00
2018-03-15T23:14:33.973Z,81.10
2018-03-15T23:17:01.515Z,81.00
2018-03-15T23:19:29.796Z,81.00
2018-03-15T23:21:57.341Z,80.90
2018-03-15T23:24:26.107Z,81.10
2018-03-15T23:26:55.155Z,80.90
2018-03-15T23:29:22.677Z,80.90
2018-03-15T23:31:50.248Z,81.00
2018-03-15T23:34:18.529Z,81.10
2018-03-15T23:36:46.065Z,81.00
2018-03-15T23:39:13.589Z,81.10
2018-03-15T23:41:41.124Z,81.10
2018-03-15T23:44:08.641Z,81.20
2018-03-15T23:46:36.942Z,81.20
2018-03-15T23:49:04.463Z,81.10
2018-03-15T23:51:31.998Z,81.10
2018-03-15T23:53:59.514Z,81.10
2018-03-15T23:56:27.049Z,81.00
2018-03-15T23:58:54.574Z,81.20
